createdAt,value
2023-03-26T00:00:17.179Z,29.915
2023-03-26T00:05:17.198Z,29.922
2023-03-26T00:10:17.239Z,29.919
2023-03-26T00:15:17.212Z,29.919
2023-03-26T00:20:17.209Z,29.925
2023-03-26T00:25:17.455Z,29.915
2023-03-26T00:30:17.220Z,29.924
2023-03-26T00:35:17.389Z,29.925
2023-03-26T00:40:17.286Z,29.921
2023-03-26T00:45:17.371Z,29.918
2023-03-26T00:50:17.357Z,29.917
2023-03-26T00:55:17.288Z,29.919
2023-03-26T01:00:17.458Z,29.914
2023-03-26T01:05:17.410Z,29.914
2023-03-26T01:10:17.345Z,29.908
2023-03-26T01:15:17.272Z,29.893
2023-03-26T01:20:17.374Z,29.885
2023-03-26T01:25:17.508Z,29.882
2023-03-26T01:30:17.362Z,29.885
2023-03-26T01:35:17.403Z,29.891
2023-03-26T01:40:17.467Z,29.901
2023-03-26T01:45:17.500Z,29.908
2023-03-26T01:50:15.535Z,29.911
2023-03-26T01:55:15.300Z,29.906
2023-03-26T02:00:15.670Z,29.889
2023-03-26T02:05:15.501Z,29.880
2023-03-26T02:10:15.493Z,29.873
2023-03-26T02:15:15.454Z,29.868
2023-03-26T02:20:15.628Z,29.864
2023-03-26T02:25:18.709Z,29.863
2023-03-26T02:30:15.525Z,29.864
2023-03-26T02:35:15.706Z,29.864
2023-03-26T02:40:15.492Z,29.863
2023-03-26T02:45:15.540Z,29.858
2023-03-26T02:50:15.806Z,29.852
2023-03-26T02:55:15.526Z,29.845
2023-03-26T03:00:15.589Z,29.840
2023-03-26T03:05:15.569Z,29.840
2023-03-26T03:10:15.632Z,29.835
2023-03-26T03:15:15.586Z,29.832
2023-03-26T03:20:15.655Z,29.826
2023-03-26T03:25:15.648Z,29.823
2023-03-26T03:30:15.750Z,29.820
2023-03-26T03:35:15.622Z,29.819
2023-03-26T03:40:15.587Z,29.821
2023-03-26T03:45:15.877Z,29.824
2023-03-26T03:50:15.647Z,29.825
2023-03-26T03:55:15.568Z,29.821
2023-03-26T04:00:16.666Z,29.826
2023-03-26T04:05:16.733Z,29.817
2023-03-26T04:10:16.729Z,29.809
2023-03-26T04:15:16.803Z,29.798
2023-03-26T04:20:16.832Z,29.796
2023-03-26T04:25:16.840Z,29.789
2023-03-26T04:30:16.755Z,29.786
2023-03-26T04:35:16.756Z,29.782
2023-03-26T04:40:16.806Z,29.775
2023-03-26T04:45:16.729Z,29.793
2023-03-26T04:50:16.922Z,29.797
2023-03-26T04:55:16.915Z,29.805
2023-03-26T05:00:16.812Z,29.768
2023-03-26T05:05:16.849Z,29.717
2023-03-26T05:10:16.858Z,29.713
2023-03-26T05:15:16.825Z,29.735
2023-03-26T05:20:16.844Z,29.740
2023-03-26T05:25:16.893Z,29.743
2023-03-26T05:30:17.176Z,29.743
2023-03-26T05:35:16.988Z,29.742
2023-03-26T05:40:17.401Z,29.744
2023-03-26T05:45:16.949Z,29.748
2023-03-26T05:50:17.028Z,29.743
2023-03-26T05:55:16.905Z,29.737
2023-03-26T06:00:17.041Z,29.731
2023-03-26T06:05:17.012Z,29.726
2023-03-26T06:10:18.291Z,29.725
2023-03-26T06:15:16.930Z,29.721
2023-03-26T06:20:16.964Z,29.714
2023-03-26T06:25:17.018Z,29.712
2023-03-26T06:30:16.934Z,29.707
2023-03-26T06:35:17.100Z,29.712
2023-03-26T06:40:17.112Z,29.717
2023-03-26T06:45:17.014Z,29.719
2023-03-26T06:50:17.001Z,29.715
2023-03-26T06:55:17.100Z,29.718
2023-03-26T07:00:17.113Z,29.718
2023-03-26T07:05:17.068Z,29.721
2023-03-26T07:10:17.119Z,29.727
2023-03-26T07:15:17.147Z,29.724
2023-03-26T07:20:17.075Z,29.723
2023-03-26T07:25:17.032Z,29.713
2023-03-26T07:30:17.408Z,29.699
2023-03-26T07:35:17.149Z,29.695
2023-03-26T07:40:17.129Z,29.696
2023-03-26T07:45:17.191Z,29.697
2023-03-26T07:50:18.381Z,29.698
2023-03-26T07:55:17.098Z,29.693
2023-03-26T08:00:17.361Z,29.693
2023-03-26T08:05:17.259Z,29.686
2023-03-26T08:10:17.254Z,29.675
2023-03-26T08:15:17.320Z,29.675
2023-03-26T08:20:17.252Z,29.674
2023-03-26T08:25:17.169Z,29.673
2023-03-26T08:30:17.223Z,29.672
2023-03-26T08:35:17.255Z,29.674
2023-03-26T08:40:17.343Z,29.673
2023-03-26T08:45:17.319Z,29.671
2023-03-26T08:50:17.337Z,29.675
2023-03-26T08:55:17.587Z,29.678
2023-03-26T09:00:17.348Z,29.676
2023-03-26T09:05:17.317Z,29.675
2023-03-26T09:10:17.338Z,29.676
2023-03-26T09:15:17.518Z,29.676
2023-03-26T09:20:17.402Z,29.672
2023-03-26T09:25:17.321Z,29.678
2023-03-26T09:30:17.359Z,29.675
2023-03-26T09:35:17.368Z,29.675
2023-03-26T09:40:17.453Z,29.674
2023-03-26T09:45:15.519Z,29.678
2023-03-26T09:50:15.409Z,29.680
2023-03-26T09:55:15.531Z,29.684
2023-03-26T10:00:15.860Z,29.688
2023-03-26T10:05:15.432Z,29.688
2023-03-26T10:10:15.489Z,29.688
2023-03-26T10:15:15.448Z,29.688
2023-03-26T10:20:15.487Z,29.687
2023-03-26T10:25:15.485Z,29.689
2023-03-26T10:30:15.450Z,29.690
2023-03-26T10:35:15.612Z,29.692
2023-03-26T10:40:15.515Z,29.692
2023-03-26T10:45:15.563Z,29.695
2023-03-26T10:50:23.049Z,29.701
2023-03-26T10:55:15.513Z,29.708
2023-03-26T11:00:15.622Z,29.708
2023-03-26T11:05:15.787Z,29.712
2023-03-26T11:10:15.646Z,29.715
2023-03-26T11:15:15.628Z,29.715
2023-03-26T11:20:15.602Z,29.715
2023-03-26T11:25:15.565Z,29.722
2023-03-26T11:30:15.690Z,29.724
2023-03-26T11:35:15.687Z,29.723
2023-03-26T11:40:15.863Z,29.728
2023-03-26T11:45:15.680Z,29.732
2023-03-26T11:50:15.742Z,29.735
2023-03-26T11:55:15.630Z,29.739
2023-03-26T12:00:15.708Z,29.743
2023-03-26T12:05:15.701Z,29.744
2023-03-26T12:10:18.951Z,29.747
2023-03-26T12:15:15.795Z,29.750
2023-03-26T12:20:15.732Z,29.748
2023-03-26T12:25:15.762Z,29.752
2023-03-26T12:30:15.679Z,29.753
2023-03-26T12:35:15.736Z,29.753
2023-03-26T12:40:19.400Z,29.758
2023-03-26T12:45:15.945Z,29.758
2023-03-26T12:50:15.892Z,29.761
2023-03-26T12:55:15.848Z,29.762
2023-03-26T13:00:15.852Z,29.759
2023-03-26T13:05:15.875Z,29.761
2023-03-26T13:10:15.856Z,29.762
2023-03-26T13:15:15.859Z,29.769
2023-03-26T13:20:15.897Z,29.767
2023-03-26T13:25:15.879Z,29.767
2023-03-26T13:30:16.161Z,29.768
2023-03-26T13:35:16.070Z,29.774
2023-03-26T13:40:15.922Z,29.774
2023-03-26T13:45:15.888Z,29.774
2023-03-26T13:50:16.021Z,29.772
2023-03-26T13:55:15.869Z,29.772
2023-03-26T14:00:15.983Z,29.774
2023-03-26T14:05:15.984Z,29.776
2023-03-26T14:10:16.103Z,29.774
2023-03-26T14:15:16.006Z,29.774
2023-03-26T14:20:16.083Z,29.775
2023-03-26T14:25:16.004Z,29.778
2023-03-26T14:30:16.046Z,29.777
2023-03-26T14:35:16.031Z,29.779
2023-03-26T14:40:16.097Z,29.776
2023-03-26T14:45:16.000Z,29.778
2023-03-26T14:50:16.081Z,29.778
2023-03-26T14:55:16.095Z,29.779
2023-03-26T15:00:16.144Z,29.781
2023-03-26T15:05:16.059Z,29.785
2023-03-26T15:10:16.223Z,29.785
2023-03-26T15:15:16.158Z,29.786
2023-03-26T15:20:16.138Z,29.785
2023-03-26T15:25:16.201Z,29.786
2023-03-26T15:30:16.177Z,29.785
2023-03-26T15:35:16.332Z,29.782
2023-03-26T15:40:16.191Z,29.781
2023-03-26T15:45:16.356Z,29.782
2023-03-26T15:50:16.304Z,29.778
2023-03-26T15:55:16.253Z,29.782
2023-03-26T16:00:16.214Z,29.784
2023-03-26T16:05:16.324Z,29.784
2023-03-26T16:10:16.274Z,29.782
2023-03-26T16:15:16.243Z,29.781
2023-03-26T16:20:16.201Z,29.782
2023-03-26T16:25:27.064Z,29.779
2023-03-26T16:30:16.417Z,29.777
2023-03-26T16:35:16.293Z,29.781
2023-03-26T16:40:16.275Z,29.785
2023-03-26T16:45:16.275Z,29.782
2023-03-26T16:50:16.403Z,29.781
2023-03-26T16:55:16.341Z,29.776
2023-03-26T17:00:16.516Z,29.779
2023-03-26T17:05:16.504Z,29.780
2023-03-26T17:10:16.364Z,29.784
2023-03-26T17:15:16.588Z,29.776
2023-03-26T17:20:16.372Z,29.779
2023-03-26T17:25:16.362Z,29.774
2023-03-26T17:30:16.913Z,29.774
2023-03-26T17:35:16.635Z,29.771
2023-03-26T17:40:16.435Z,29.778
2023-03-26T17:45:16.426Z,29.773
2023-03-26T17:50:16.487Z,29.774
2023-03-26T17:55:16.395Z,29.777
2023-03-26T18:00:16.708Z,29.773
2023-03-26T18:05:16.533Z,29.774
2023-03-26T18:10:16.537Z,29.776
2023-03-26T18:15:16.610Z,29.774
2023-03-26T18:20:16.613Z,29.777
2023-03-26T18:25:16.597Z,29.777
2023-03-26T18:30:16.514Z,29.776
2023-03-26T18:35:16.622Z,29.778
2023-03-26T18:40:16.597Z,29.784
2023-03-26T18:45:16.644Z,29.781
2023-03-26T18:50:16.645Z,29.780
2023-03-26T18:55:16.546Z,29.781
2023-03-26T19:00:16.561Z,29.779
2023-03-26T19:05:16.857Z,29.784
2023-03-26T19:10:16.836Z,29.782
2023-03-26T19:15:16.616Z,29.784
2023-03-26T19:20:16.662Z,29.787
2023-03-26T19:25:16.695Z,29.786
2023-03-26T19:30:16.700Z,29.792
2023-03-26T19:35:16.800Z,29.792
2023-03-26T19:40:16.688Z,29.793
2023-03-26T19:45:16.736Z,29.798
2023-03-26T19:50:16.686Z,29.800
2023-03-26T19:55:16.671Z,29.800
2023-03-26T20:00:16.804Z,29.802
2023-03-26T20:05:16.692Z,29.804
2023-03-26T20:10:16.801Z,29.804
2023-03-26T20:15:19.451Z,29.805
2023-03-26T20:20:16.921Z,29.808
2023-03-26T20:25:22.476Z,29.806
2023-03-26T20:30:22.256Z,29.809
2023-03-26T20:35:16.858Z,29.810
2023-03-26T20:40:16.898Z,29.810
2023-03-26T20:45:16.818Z,29.812
2023-03-26T20:50:16.861Z,29.813
2023-03-26T20:55:16.954Z,29.817
2023-03-26T21:00:16.897Z,29.816
2023-03-26T21:05:16.911Z,29.816
2023-03-26T21:10:16.877Z,29.815
2023-03-26T21:15:23.495Z,29.820
2023-03-26T21:20:16.920Z,29.823
2023-03-26T21:25:17.001Z,29.824
2023-03-26T21:30:16.962Z,29.825
2023-03-26T21:35:17.017Z,29.831
2023-03-26T21:40:17.158Z,29.831
2023-03-26T21:45:16.944Z,29.834
2023-03-26T21:50:16.931Z,29.834
2023-03-26T21:55:16.940Z,29.835
2023-03-26T22:00:16.991Z,29.836
2023-03-26T22:05:17.047Z,29.840
2023-03-26T22:10:17.073Z,29.840
2023-03-26T22:15:17.019Z,29.843
2023-03-26T22:20:17.014Z,29.840
2023-03-26T22:25:17.064Z,29.844
2023-03-26T22:30:17.042Z,29.848
2023-03-26T22:35:17.110Z,29.847
2023-03-26T22:40:17.199Z,29.847
2023-03-26T22:45:17.087Z,29.852
2023-03-26T22:50:17.311Z,29.857
2023-03-26T22:55:29.007Z,29.859
2023-03-26T23:00:17.138Z,29.861
2023-03-26T23:05:17.065Z,29.862
2023-03-26T23:10:17.080Z,29.863
2023-03-26T23:15:17.159Z,29.866
2023-03-26T23:20:17.335Z,29.871
2023-03-26T23:25:17.296Z,29.871
2023-03-26T23:30:17.120Z,29.875
2023-03-26T23:35:17.235Z,29.875
2023-03-26T23:40:17.256Z,29.881
2023-03-26T23:45:17.215Z,29.885
2023-03-26T23:50:17.219Z,29.886
2023-03-26T23:55:17.111Z,29.891
